Time;durP1;ratioP1;P1;durP2;ratioP2;P2;SDS_P1;SDS_P2;PMS_P1;PMS_P2;Temp;Humidity;BMP_temperature;BMP_pressure;BME280_temperature;BME280_humidity;BME280_pressure;Samples;Min_cycle;Max_cycle;Signal;HPM_P1;HPM_P2
2024/01/03 00:00:54;;;;;;;0.00;0.00;;;;;;;8.66;100.00;97744.81;4961989;28;20579;-76
2024/01/03 00:03:19;;;;;;;0.10;0.10;;;;;;;8.63;100.00;97739.19;4931749;28;20031;-76
2024/01/03 00:05:45;;;;;;;0.00;0.00;;;;;;;8.52;100.00;97734.06;4933834;28;20528;-76
2024/01/03 00:08:14;;;;;;;0.00;0.00;;;;;;;8.54;100.00;97737.28;4933662;28;20042;-75
2024/01/03 00:10:49;;;;;;;0.00;0.00;;;;;;;8.47;100.00;97739.66;4922933;28;20125;-75
2024/01/03 00:13:30;;;;;;;0.00;0.00;;;;;;;8.38;100.00;97733.34;4951270;28;20565;-77
2024/01/03 00:15:58;;;;;;;0.00;0.00;;;;;;;8.37;100.00;97731.75;4937904;28;20026;-75
2024/01/03 00:18:49;;;;;;;0.00;0.00;;;;;;;8.37;100.00;97742.66;4963005;28;20023;-76
2024/01/03 00:21:22;;;;;;;0.10;0.10;;;;;;;8.33;100.00;97730.78;4950533;28;20031;-77
2024/01/03 00:23:51;;;;;;;0.00;0.00;;;;;;;8.27;100.00;97732.06;4962767;28;20118;-75
2024/01/03 00:26:17;;;;;;;0.00;0.00;;;;;;;8.07;100.00;97723.34;4946361;28;20023;-77
2024/01/03 00:28:43;;;;;;;0.00;0.00;;;;;;;8.04;100.00;97727.53;4944562;28;20385;-75
2024/01/03 00:31:14;;;;;;;0.00;0.00;;;;;;;7.98;100.00;97733.41;4957946;28;20034;-75
2024/01/03 00:33:41;;;;;;;0.00;0.00;;;;;;;7.89;100.00;97711.59;4961138;28;20437;-77
2024/01/03 00:36:11;;;;;;;0.10;0.10;;;;;;;7.77;100.00;97703.22;4934291;28;20093;-75
2024/01/03 00:38:41;;;;;;;0.00;0.00;;;;;;;7.86;100.00;97718.47;4958289;28;20039;-75
2024/01/03 00:41:09;;;;;;;0.00;0.00;;;;;;;7.88;100.00;97709.22;4955017;28;20011;-75
2024/01/03 00:43:35;;;;;;;0.00;0.00;;;;;;;7.91;100.00;97703.13;4924566;28;20381;-76
2024/01/03 00:46:01;;;;;;;0.00;0.00;;;;;;;7.90;100.00;97701.53;4938376;28;20117;-74
2024/01/03 00:48:26;;;;;;;0.00;0.00;;;;;;;7.92;100.00;97697.38;4942438;28;20034;-74
2024/01/03 00:50:52;;;;;;;0.00;0.00;;;;;;;8.07;100.00;97707.00;4929808;28;20097;-75
2024/01/03 00:53:17;;;;;;;0.00;0.00;;;;;;;8.16;100.00;97693.44;4937943;28;20077;-75
2024/01/03 00:55:43;;;;;;;0.00;0.00;;;;;;;8.24;100.00;97689.94;4945562;28;20066;-75
2024/01/03 00:58:10;;;;;;;0.00;0.00;;;;;;;8.35;100.00;97680.34;4946879;28;20070;-74
2024/01/03 01:00:36;;;;;;;0.00;0.00;;;;;;;8.38;100.00;97671.53;4929694;28;20035;-74
2024/01/03 01:03:02;;;;;;;0.00;0.00;;;;;;;8.42;100.00;97679.84;4918110;29;20081;-77
2024/01/03 01:05:28;;;;;;;0.00;0.00;;;;;;;8.43;100.00;97688.84;4932777;28;20081;-75
2024/01/03 01:07:56;;;;;;;0.00;0.00;;;;;;;8.51;100.00;97686.16;4959918;28;20023;-75
2024/01/03 01:10:21;;;;;;;0.10;0.10;;;;;;;8.52;100.00;97681.50;4971050;28;20058;-75
2024/01/03 01:12:47;;;;;;;0.00;0.00;;;;;;;8.49;100.00;97674.78;4946604;28;20029;-76
2024/01/03 01:15:12;;;;;;;0.00;0.00;;;;;;;8.47;100.00;97679.75;4973462;28;20031;-75
2024/01/03 01:17:38;;;;;;;0.00;0.00;;;;;;;8.38;100.00;97678.88;4917144;28;20031;-75
2024/01/03 01:20:04;;;;;;;0.00;0.00;;;;;;;8.37;100.00;97671.84;4945854;28;20430;-76
2024/01/03 01:22:30;;;;;;;0.00;0.00;;;;;;;8.43;100.00;97670.56;4926595;28;20038;-76
2024/01/03 01:24:55;;;;;;;0.00;0.00;;;;;;;8.50;100.00;97673.66;4925087;28;20035;-76
2024/01/03 01:27:20;;;;;;;0.00;0.00;;;;;;;8.45;100.00;97668.34;4927312;28;20015;-76
2024/01/03 01:29:46;;;;;;;0.00;0.00;;;;;;;8.39;100.00;97673.13;4934002;28;20043;-76
2024/01/03 01:32:11;;;;;;;0.00;0.00;;;;;;;8.41;100.00;97672.00;4938803;28;20122;-76
2024/01/03 01:34:37;;;;;;;0.00;0.00;;;;;;;8.37;100.00;97683.53;4945429;28;20019;-76
2024/01/03 01:37:02;;;;;;;0.00;0.00;;;;;;;8.27;100.00;97678.41;4965358;28;20030;-76
2024/01/03 01:39:28;;;;;;;0.00;0.00;;;;;;;8.23;100.00;97674.72;4940353;28;20548;-75
2024/01/03 01:41:53;;;;;;;0.10;0.10;;;;;;;8.18;100.00;97664.78;4971774;28;20066;-74
2024/01/03 01:44:21;;;;;;;0.00;0.00;;;;;;;8.30;100.00;97682.41;4968825;28;20025;-75
2024/01/03 01:46:47;;;;;;;0.00;0.00;;;;;;;8.27;100.00;97662.06;4936073;28;20028;-75
2024/01/03 01:49:17;;;;;;;0.00;0.00;;;;;;;8.32;100.00;97691.88;4962088;28;20057;-76
2024/01/03 01:51:44;;;;;;;0.00;0.00;;;;;;;8.38;100.00;97687.06;4982947;28;20033;-76
2024/01/03 01:54:12;;;;;;;0.00;0.00;;;;;;;8.44;100.00;97693.16;4957406;28;20059;-77
2024/01/03 01:56:39;;;;;;;0.00;0.00;;;;;;;8.41;100.00;97683.72;4938619;28;20024;-76
2024/01/03 01:59:06;;;;;;;0.00;0.00;;;;;;;8.45;100.00;97683.91;4933179;28;20366;-75
2024/01/03 02:01:35;;;;;;;0.00;0.00;;;;;;;8.47;100.00;97690.66;4955550;28;20035;-76
2024/01/03 02:04:06;;;;;;;0.00;0.00;;;;;;;8.46;100.00;97691.75;4964379;28;20033;-77
2024/01/03 02:06:33;;;;;;;0.00;0.00;;;;;;;8.33;100.00;97673.63;4961540;28;20110;-76
2024/01/03 02:08:58;;;;;;;0.00;0.00;;;;;;;8.36;100.00;97679.22;4932516;28;20055;-76
2024/01/03 02:11:26;;;;;;;0.00;0.00;;;;;;;8.38;100.00;97684.34;4937323;29;20126;-76
2024/01/03 02:13:51;;;;;;;0.00;0.00;;;;;;;8.30;100.00;97671.53;4947719;28;20526;-75
2024/01/03 02:16:17;;;;;;;0.00;0.00;;;;;;;8.32;100.00;97685.63;4932883;28;20105;-75
2024/01/03 02:18:43;;;;;;;0.00;0.00;;;;;;;8.35;100.00;97693.16;4945574;29;20024;-76
2024/01/03 02:21:18;;;;;;;0.00;0.00;;;;;;;8.33;100.00;97695.41;4952156;28;20051;-75
2024/01/03 02:23:43;;;;;;;0.00;0.00;;;;;;;8.30;100.00;97705.00;4950326;28;20042;-74
2024/01/03 02:26:09;;;;;;;0.00;0.00;;;;;;;8.27;100.00;97699.41;4930018;28;20031;-74
2024/01/03 02:28:36;;;;;;;0.00;0.00;;;;;;;8.31;100.00;97698.44;4924352;28;20060;-75
2024/01/03 02:31:01;;;;;;;0.00;0.00;;;;;;;8.26;100.00;97687.69;4944148;28;21010;-75
2024/01/03 02:33:27;;;;;;;0.00;0.00;;;;;;;8.47;100.00;97698.00;4958833;28;20118;-76
2024/01/03 02:35:52;;;;;;;0.00;0.00;;;;;;;8.59;100.00;97711.00;4964453;28;20031;-75
2024/01/03 02:38:19;;;;;;;0.00;0.00;;;;;;;8.56;100.00;97705.06;4932150;28;20027;-75
2024/01/03 02:40:44;;;;;;;0.00;0.00;;;;;;;8.53;100.00;97708.44;4963992;28;20095;-74
2024/01/03 02:43:10;;;;;;;0.10;0.10;;;;;;;8.48;100.00;97694.16;4926124;28;20657;-75
2024/01/03 02:45:36;;;;;;;0.00;0.00;;;;;;;8.51;100.00;97716.13;4940451;28;20038;-75
2024/01/03 02:48:02;;;;;;;0.00;0.00;;;;;;;8.44;100.00;97704.91;4939702;28;20031;-76
2024/01/03 02:50:27;;;;;;;0.00;0.00;;;;;;;8.33;100.00;97714.47;4966956;28;20027;-75
2024/01/03 02:52:53;;;;;;;0.00;0.00;;;;;;;8.27;100.00;97718.44;4951874;28;20030;-75
2024/01/03 02:55:21;;;;;;;0.00;0.00;;;;;;;8.13;100.00;97708.50;4951413;28;20062;-73
2024/01/03 02:57:46;;;;;;;0.00;0.00;;;;;;;8.06;100.00;97697.28;4939002;28;20450;-75
2024/01/03 03:00:12;;;;;;;0.00;0.00;;;;;;;8.14;100.00;97715.53;4950188;28;20029;-74
2024/01/03 03:02:38;;;;;;;0.00;0.00;;;;;;;8.08;100.00;97711.34;4955143;28;20023;-75
2024/01/03 03:05:04;;;;;;;0.00;0.00;;;;;;;8.08;100.00;97721.44;4930090;29;20397;-75
2024/01/03 03:07:29;;;;;;;0.00;0.00;;;;;;;8.04;100.00;97715.81;4933260;28;20035;-75
2024/01/03 03:09:55;;;;;;;0.00;0.00;;;;;;;8.01;100.00;97722.69;4914754;28;20027;-75
2024/01/03 03:12:20;;;;;;;0.00;0.00;;;;;;;8.09;100.00;97734.75;4936712;28;20023;-74
2024/01/03 03:14:45;;;;;;;0.00;0.00;;;;;;;8.07;100.00;97717.91;4943560;28;20117;-75
2024/01/03 03:17:11;;;;;;;0.00;0.00;;;;;;;8.06;100.00;97729.09;4928731;28;20112;-75
2024/01/03 03:19:36;;;;;;;0.00;0.00;;;;;;;8.00;100.00;97733.88;4966451;28;20034;-75
2024/01/03 03:22:02;;;;;;;0.00;0.00;;;;;;;7.97;100.00;97724.44;4939537;28;20022;-75
2024/01/03 03:24:27;;;;;;;0.00;0.00;;;;;;;7.92;100.00;97726.50;4943956;28;20126;-75
2024/01/03 03:26:53;;;;;;;0.00;0.00;;;;;;;7.92;100.00;97724.59;4934726;28;20026;-76
2024/01/03 03:29:19;;;;;;;0.00;0.00;;;;;;;7.97;100.00;97723.63;4922694;28;20500;-76
2024/01/03 03:31:44;;;;;;;0.00;0.00;;;;;;;7.98;100.00;97714.38;4943468;28;20113;-76
2024/01/03 03:34:09;;;;;;;0.00;0.00;;;;;;;8.09;100.00;97736.63;4921228;28;20512;-75
2024/01/03 03:36:35;;;;;;;0.00;0.00;;;;;;;8.15;100.00;97733.47;4959262;28;20500;-76
2024/01/03 03:39:00;;;;;;;0.00;0.00;;;;;;;8.21;100.00;97734.91;4928786;28;20484;-75
2024/01/03 03:41:26;;;;;;;0.00;0.00;;;;;;;8.24;100.00;97738.94;4924920;28;20130;-75
2024/01/03 03:43:51;;;;;;;0.00;0.00;;;;;;;8.24;100.00;97740.88;4968912;28;20095;-75
2024/01/03 03:46:18;;;;;;;0.00;0.00;;;;;;;8.23;100.00;97731.09;4967647;28;20033;-75
2024/01/03 03:48:43;;;;;;;0.00;0.00;;;;;;;8.25;100.00;97728.84;4954893;28;20109;-75
2024/01/03 03:51:09;;;;;;;0.00;0.00;;;;;;;8.33;100.00;97736.25;4924918;28;20073;-75
2024/01/03 03:53:35;;;;;;;0.00;0.00;;;;;;;8.43;100.00;97740.59;4935758;29;20023;-76
2024/01/03 03:56:00;;;;;;;0.00;0.00;;;;;;;8.38;100.00;97741.53;4952683;28;20433;-74
2024/01/03 03:58:25;;;;;;;0.00;0.00;;;;;;;8.42;100.00;97742.50;4936286;28;20027;-75
2024/01/03 04:00:51;;;;;;;0.00;0.00;;;;;;;8.31;100.00;97728.38;4940861;28;20425;-75
2024/01/03 04:03:17;;;;;;;0.00;0.00;;;;;;;8.19;100.00;97734.44;4924364;28;20038;-74
2024/01/03 04:05:42;;;;;;;0.00;0.00;;;;;;;8.07;100.00;97738.88;4932387;28;20045;-75
2024/01/03 04:08:07;;;;;;;0.00;0.00;;;;;;;8.06;100.00;97743.53;4951661;28;20033;-74
2024/01/03 04:10:33;;;;;;;0.00;0.00;;;;;;;7.93;100.00;97741.69;4939545;29;20034;-74
2024/01/03 04:12:59;;;;;;;0.00;0.00;;;;;;;7.86;100.00;97745.69;4938886;28;20044;-75
2024/01/03 04:15:24;;;;;;;0.00;0.00;;;;;;;7.73;100.00;97738.44;4970525;28;20096;-73
2024/01/03 04:17:53;;;;;;;0.00;0.00;;;;;;;7.64;100.00;97743.03;4935601;28;20038;-74
2024/01/03 04:20:20;;;;;;;0.00;0.00;;;;;;;7.56;100.00;97741.06;4976273;28;20027;-75
2024/01/03 04:22:46;;;;;;;0.00;0.00;;;;;;;7.47;100.00;97732.84;4939649;28;20081;-74
2024/01/03 04:25:12;;;;;;;0.00;0.00;;;;;;;7.43;100.00;97742.75;4921982;28;20024;-76
2024/01/03 04:27:39;;;;;;;0.00;0.00;;;;;;;7.37;100.00;97728.47;4948860;28;20062;-76
2024/01/03 04:30:05;;;;;;;0.10;0.10;;;;;;;7.37;100.00;97735.84;4935688;28;20031;-77
2024/01/03 04:32:31;;;;;;;0.00;0.00;;;;;;;7.38;100.00;97740.94;4954127;28;20489;-75
2024/01/03 04:34:56;;;;;;;0.00;0.00;;;;;;;7.36;100.00;97745.91;4965012;28;20038;-75
2024/01/03 04:37:22;;;;;;;0.00;0.00;;;;;;;7.34;100.00;97743.50;4944338;29;20035;-75
2024/01/03 04:39:47;;;;;;;0.00;0.00;;;;;;;7.36;100.00;97743.19;4925808;28;20469;-75
2024/01/03 04:42:13;;;;;;;0.00;0.00;;;;;;;7.39;100.00;97745.28;4942802;28;20023;-76
2024/01/03 04:44:40;;;;;;;0.00;0.00;;;;;;;7.40;100.00;97749.59;4931614;29;20028;-75
2024/01/03 04:47:06;;;;;;;0.00;0.00;;;;;;;7.39;100.00;97737.13;4946627;28;20377;-75
2024/01/03 04:49:31;;;;;;;0.00;0.00;;;;;;;7.50;100.00;97746.66;4933850;28;20046;-75
2024/01/03 04:51:56;;;;;;;0.00;0.00;;;;;;;7.53;100.00;97741.69;4955161;28;20837;-75
2024/01/03 04:54:22;;;;;;;0.00;0.00;;;;;;;7.46;100.00;97748.38;4969679;28;20046;-75
2024/01/03 04:56:48;;;;;;;0.00;0.00;;;;;;;7.40;100.00;97748.81;4945198;28;20034;-74
2024/01/03 04:59:13;;;;;;;0.00;0.00;;;;;;;7.42;100.00;97747.38;4937272;28;20089;-75
2024/01/03 05:01:42;;;;;;;0.00;0.00;;;;;;;7.27;100.00;97726.81;4945843;28;20031;-75
2024/01/03 05:04:10;;;;;;;0.00;0.00;;;;;;;7.37;100.00;97750.22;4943893;28;20074;-75
2024/01/03 05:06:36;;;;;;;0.00;0.00;;;;;;;7.27;100.00;97728.72;4941992;28;20030;-76
2024/01/03 05:09:02;;;;;;;0.00;0.00;;;;;;;7.34;100.00;97739.97;4950571;28;20033;-75
2024/01/03 05:11:28;;;;;;;0.00;0.00;;;;;;;7.39;100.00;97749.91;4936341;28;20035;-75
2024/01/03 05:13:54;;;;;;;0.10;0.10;;;;;;;7.31;100.00;97756.91;4979188;28;20030;-75
2024/01/03 05:16:19;;;;;;;0.00;0.00;;;;;;;7.26;100.00;97743.44;4960766;28;20035;-75
2024/01/03 05:18:45;;;;;;;0.00;0.00;;;;;;;7.33;100.00;97754.69;4919192;29;20020;-75
2024/01/03 05:21:11;;;;;;;0.00;0.00;;;;;;;7.53;100.00;97753.34;4931599;28;20359;-76
2024/01/03 05:23:36;;;;;;;0.00;0.00;;;;;;;7.62;100.00;97747.97;4946471;28;20042;-76
2024/01/03 05:26:02;;;;;;;0.00;0.00;;;;;;;7.60;100.00;97752.94;4939493;28;20109;-75
2024/01/03 05:28:27;;;;;;;0.00;0.00;;;;;;;7.46;100.00;97732.06;4939635;28;20057;-76
2024/01/03 05:30:53;;;;;;;0.00;0.00;;;;;;;7.49;100.00;97742.31;4914487;29;20422;-75
2024/01/03 05:33:18;;;;;;;0.00;0.00;;;;;;;7.36;100.00;97745.91;4930168;28;20047;-76
2024/01/03 05:35:44;;;;;;;0.10;0.10;;;;;;;7.33;100.00;97760.13;4921236;28;20043;-78
2024/01/03 05:38:09;;;;;;;0.00;0.00;;;;;;;7.34;100.00;97748.94;4938830;28;20124;-77
2024/01/03 05:40:34;;;;;;;0.00;0.00;;;;;;;7.25;100.00;97739.13;4919824;28;20031;-76
2024/01/03 05:43:00;;;;;;;0.00;0.00;;;;;;;7.30;100.00;97756.09;4913546;28;20027;-75
2024/01/03 05:45:25;;;;;;;0.00;0.00;;;;;;;7.28;100.00;97746.66;4941974;29;20080;-75
2024/01/03 05:47:51;;;;;;;0.00;0.00;;;;;;;7.36;100.00;97754.06;4935194;29;20034;-76
2024/01/03 05:50:17;;;;;;;0.00;0.00;;;;;;;7.36;100.00;97762.22;4940356;28;20425;-76
2024/01/03 05:52:43;;;;;;;0.00;0.00;;;;;;;7.34;100.00;97762.53;4965511;28;20015;-76
2024/01/03 05:55:10;;;;;;;0.00;0.00;;;;;;;7.28;100.00;97741.22;4956177;28;20570;-76
2024/01/03 05:57:38;;;;;;;0.00;0.00;;;;;;;7.26;100.00;97743.44;4952671;28;20031;-76
2024/01/03 06:00:05;;;;;;;0.00;0.00;;;;;;;7.40;100.00;97749.59;4971728;28;20081;-75
2024/01/03 06:02:31;;;;;;;0.03;0.03;;;;;;;7.41;100.00;97766.72;4934668;28;20023;-75
2024/01/03 06:04:56;;;;;;;0.00;0.00;;;;;;;7.42;100.00;97755.53;4938905;29;20034;-76
2024/01/03 06:07:22;;;;;;;0.00;0.00;;;;;;;7.39;100.00;97753.44;4920288;28;20023;-74
2024/01/03 06:09:47;;;;;;;0.00;0.00;;;;;;;7.36;100.00;97770.38;4947289;28;20038;-75
2024/01/03 06:12:13;;;;;;;0.00;0.00;;;;;;;7.32;100.00;97748.44;4967345;28;20054;-74
2024/01/03 06:14:38;;;;;;;0.00;0.00;;;;;;;7.33;100.00;97743.81;4964853;28;20015;-75
2024/01/03 06:17:04;;;;;;;0.00;0.00;;;;;;;7.36;100.00;97756.78;4931071;29;20029;-74
2024/01/03 06:19:29;;;;;;;0.00;0.00;;;;;;;7.31;100.00;97757.69;4937622;28;20026;-76
2024/01/03 06:21:55;;;;;;;0.00;0.00;;;;;;;7.34;100.00;97773.41;4948729;28;20564;-76
2024/01/03 06:24:20;;;;;;;0.00;0.00;;;;;;;7.29;100.00;97753.69;4947142;28;20033;-74
2024/01/03 06:26:46;;;;;;;0.00;0.00;;;;;;;7.34;100.00;97773.41;4955542;28;20077;-75
2024/01/03 06:29:11;;;;;;;0.00;0.00;;;;;;;7.24;100.00;97751.09;4957836;28;20042;-75
2024/01/03 06:31:36;;;;;;;0.00;0.00;;;;;;;7.37;100.00;97771.16;4940743;28;20039;-74
2024/01/03 06:34:02;;;;;;;0.00;0.00;;;;;;;7.39;100.00;97767.03;4948113;28;20476;-76
2024/01/03 06:36:28;;;;;;;0.00;0.00;;;;;;;7.39;100.00;97767.03;4916034;28;20033;-74
2024/01/03 06:38:53;;;;;;;0.00;0.00;;;;;;;7.29;100.00;97745.53;4940283;28;20066;-76
2024/01/03 06:41:28;;;;;;;0.00;0.00;;;;;;;7.34;100.00;97756.28;4970188;28;20034;-77
2024/01/03 06:43:53;;;;;;;0.00;0.00;;;;;;;7.26;100.00;97748.88;4938130;29;20028;-75
2024/01/03 06:46:19;;;;;;;0.00;0.00;;;;;;;7.26;100.00;97748.88;4956583;28;20493;-74
2024/01/03 06:48:44;;;;;;;0.00;0.00;;;;;;;7.23;100.00;97744.88;4922529;29;20023;-74
2024/01/03 06:51:10;;;;;;;0.10;0.10;;;;;;;7.31;100.00;97759.63;4951318;28;20054;-75
2024/01/03 06:53:35;;;;;;;0.00;0.00;;;;;;;7.25;100.00;97739.13;4945361;28;20023;-75
2024/01/03 06:56:00;;;;;;;0.00;0.00;;;;;;;7.29;100.00;97742.81;4932215;28;20031;-74
2024/01/03 06:58:26;;;;;;;0.00;0.00;;;;;;;7.34;100.00;97756.28;4971498;28;20093;-75
2024/01/03 07:00:51;;;;;;;0.00;0.00;;;;;;;7.38;100.00;97760.00;4965467;28;20027;-74
2024/01/03 07:03:17;;;;;;;0.00;0.00;;;;;;;7.37;100.00;97771.16;4912425;29;20038;-74
2024/01/03 07:05:43;;;;;;;0.00;0.00;;;;;;;7.46;100.00;97770.13;4944404;28;20030;-76
2024/01/03 07:08:10;;;;;;;0.00;0.00;;;;;;;7.45;100.00;97752.19;4959179;28;20716;-75
2024/01/03 07:10:36;;;;;;;0.10;0.10;;;;;;;7.51;100.00;97761.03;4935862;28;20023;-73
2024/01/03 07:13:02;;;;;;;0.00;0.00;;;;;;;7.47;100.00;97755.41;4941028;28;20025;-74
2024/01/03 07:15:30;;;;;;;0.00;0.00;;;;;;;7.53;100.00;97752.56;4942554;28;20027;-76
2024/01/03 07:17:56;;;;;;;0.00;0.00;;;;;;;7.59;100.00;97767.63;4952320;28;20019;-76
2024/01/03 07:20:22;;;;;;;0.00;0.00;;;;;;;7.71;100.00;97769.78;4935614;29;20054;-77
2024/01/03 07:22:51;;;;;;;0.00;0.00;;;;;;;7.89;100.00;97770.69;4957998;28;20112;-75
2024/01/03 07:25:17;;;;;;;0.00;0.00;;;;;;;8.09;100.00;97763.84;4967056;28;20027;-78
2024/01/03 07:27:43;;;;;;;0.00;0.00;;;;;;;8.21;100.00;97774.97;4953653;28;20042;-76
2024/01/03 07:30:10;;;;;;;0.00;0.00;;;;;;;8.13;100.00;97760.22;4942383;28;20033;-75
2024/01/03 07:32:35;;;;;;;0.00;0.00;;;;;;;8.02;100.00;97764.31;4963449;28;20542;-76
2024/01/03 07:35:01;;;;;;;0.00;0.00;;;;;;;7.96;100.00;97774.53;4924478;28;20023;-75
2024/01/03 07:37:27;;;;;;;0.00;0.00;;;;;;;8.12;100.00;97769.50;4955927;28;20042;-76
2024/01/03 07:39:52;;;;;;;0.00;0.00;;;;;;;8.26;100.00;97763.13;4948532;28;20034;-75
2024/01/03 07:42:18;;;;;;;0.00;0.00;;;;;;;8.44;100.00;97770.25;4923356;29;20015;-76
2024/01/03 07:44:45;;;;;;;0.00;0.00;;;;;;;8.48;100.00;97754.88;4933325;28;20031;-75
2024/01/03 07:47:11;;;;;;;0.00;0.00;;;;;;;8.58;100.00;97777.50;4940862;28;20046;-76
2024/01/03 07:49:42;;;;;;;0.03;0.03;;;;;;;8.53;100.00;97762.91;4968400;28;20090;-77
2024/01/03 07:52:10;;;;;;;0.00;0.00;;;;;;;8.53;100.00;97752.00;4937965;29;20054;-79
2024/01/03 07:54:35;;;;;;;0.00;0.00;;;;;;;8.52;100.00;97766.75;4974952;28;20025;-74
2024/01/03 07:57:04;;;;;;;0.00;0.00;;;;;;;8.48;100.00;97760.31;4951853;28;20050;-78
2024/01/03 07:59:32;;;;;;;0.00;0.00;;;;;;;8.40;100.00;97747.47;4981112;28;20054;-77
2024/01/03 08:01:58;;;;;;;0.00;0.00;;;;;;;8.49;100.00;97758.41;4965399;28;20043;-76
2024/01/03 08:04:25;;;;;;;0.00;0.00;;;;;;;8.20;100.00;97744.19;4911145;28;20101;-77
2024/01/03 08:06:53;;;;;;;0.00;0.00;;;;;;;8.06;100.00;97727.22;4957710;28;20371;-79
2024/01/03 08:09:18;;;;;;;0.00;0.00;;;;;;;8.01;100.00;97746.38;4925804;28;20043;-77
2024/01/03 08:11:47;;;;;;;0.00;0.00;;;;;;;7.88;100.00;97725.53;4955902;28;20026;-79
2024/01/03 08:14:14;;;;;;;0.00;0.00;;;;;;;8.06;100.00;97732.66;4947948;28;20003;-79
2024/01/03 08:16:39;;;;;;;0.00;0.00;;;;;;;8.32;100.00;97745.50;4923754;28;20077;-78
2024/01/03 08:19:05;;;;;;;0.00;0.00;;;;;;;8.38;100.00;97749.69;4969434;28;20059;-78
2024/01/03 08:21:33;;;;;;;0.10;0.10;;;;;;;8.43;100.00;97746.03;4934831;28;20169;-79
2024/01/03 08:24:03;;;;;;;0.00;0.00;;;;;;;8.56;100.00;97758.75;4958072;28;20023;-80
2024/01/03 08:26:29;;;;;;;0.00;0.00;;;;;;;8.60;100.00;97757.00;4950721;28;20023;-78
2024/01/03 08:28:57;;;;;;;0.00;0.00;;;;;;;8.60;100.00;97757.00;4931773;29;20034;-79
2024/01/03 08:31:22;;;;;;;0.00;0.00;;;;;;;8.55;100.00;97736.13;4951938;28;20147;-79
2024/01/03 08:33:50;;;;;;;0.00;0.00;;;;;;;8.70;100.00;97761.31;4936027;29;20964;-77
2024/01/03 08:36:16;;;;;;;0.00;0.00;;;;;;;8.69;100.00;97765.19;4970474;28;20487;-78
2024/01/03 08:38:42;;;;;;;0.00;0.00;;;;;;;8.74;100.00;97759.56;4952677;28;20111;-77
2024/01/03 08:41:28;;;;;;;;;;;;;;;;;;;;;
2024/01/03 08:43:54;;;;;;;0.00;0.00;;;;;;;8.88;100.00;97762.94;4966612;28;20092;-78
2024/01/03 08:46:20;;;;;;;0.00;0.00;;;;;;;8.96;100.00;97764.06;4953143;28;20115;-78
2024/01/03 08:48:45;;;;;;;0.00;0.00;;;;;;;8.85;100.00;97747.25;4946943;28;20035;-78
2024/01/03 08:51:17;;;;;;;0.00;0.00;;;;;;;8.69;100.00;97754.28;4938532;28;20027;-79
2024/01/03 08:53:43;;;;;;;0.00;0.00;;;;;;;8.56;100.00;97756.81;4952538;28;20110;-79
2024/01/03 08:56:18;;;;;;;0.00;0.00;;;;;;;8.87;100.00;97761.34;4941134;28;20073;-79
2024/01/03 08:58:46;;;;;;;0.00;0.00;;;;;;;8.98;100.00;97750.13;4949768;28;20370;-78
2024/01/03 09:01:37;;;;;;;0.00;0.00;;;;;;;9.07;100.00;97753.66;4949819;28;20034;-79
2024/01/03 09:04:03;;;;;;;0.00;0.00;;;;;;;9.06;100.00;97761.00;4929051;28;21491;-79
2024/01/03 09:06:38;;;;;;;0.00;0.00;;;;;;;8.84;100.00;97739.38;4947355;28;20054;-77
2024/01/03 09:09:04;;;;;;;0.00;0.00;;;;;;;8.85;100.00;97747.25;4953321;28;20031;-79
2024/01/03 09:11:29;;;;;;;0.00;0.00;;;;;;;8.94;100.00;97743.72;4950152;28;20465;-77
2024/01/03 09:14:07;;;;;;;0.00;0.00;;;;;;;9.19;100.00;97726.53;4947856;28;20035;-79
2024/01/03 09:16:33;;;;;;;0.00;0.00;;;;;;;9.38;100.00;97720.72;4950540;28;20025;-79
2024/01/03 09:19:09;;;;;;;0.00;0.00;;;;;;;9.38;100.00;97747.22;4942446;28;20039;-78
2024/01/03 09:21:34;;;;;;;0.00;0.00;;;;;;;9.35;100.00;97747.84;4946250;28;20097;-79
2024/01/03 09:24:02;;;;;;;0.00;0.00;;;;;;;9.44;100.00;97732.28;4953533;28;20567;-77
2024/01/03 09:26:27;;;;;;;0.00;0.00;;;;;;;9.83;100.00;97740.50;4944951;28;20046;-77
2024/01/03 09:28:53;;;;;;;0.00;0.00;;;;;;;10.43;100.00;97755.84;4961697;28;20006;-78
2024/01/03 09:31:18;;;;;;;0.00;0.00;;;;;;;11.03;100.00;97735.81;4932094;28;20509;-78
2024/01/03 09:33:44;;;;;;;0.10;0.10;;;;;;;11.47;100.00;97753.44;4969120;28;20070;-76
2024/01/03 09:36:24;;;;;;;0.00;0.00;;;;;;;11.95;100.00;97737.47;4976768;28;20058;-79
2024/01/03 09:38:53;;;;;;;0.00;0.00;;;;;;;12.01;97.24;97735.31;4945646;28;20039;-77
2024/01/03 09:41:19;;;;;;;0.00;0.00;;;;;;;11.67;95.89;97742.78;4979614;28;20196;-78
2024/01/03 09:44:05;;;;;;;0.00;0.00;;;;;;;11.68;98.17;97723.28;4952337;28;20057;-81
2024/01/03 09:46:49;;;;;;;;;;;;;;;;;;;;;
2024/01/03 09:49:17;;;;;;;0.00;0.00;;;;;;;11.16;100.00;97753.88;4977039;28;20030;-78
2024/01/03 09:51:47;;;;;;;0.00;0.00;;;;;;;10.81;100.00;97727.63;4948946;28;20037;-76
2024/01/03 09:54:13;;;;;;;0.00;0.00;;;;;;;11.84;100.00;97747.25;4974980;28;20046;-78
2024/01/03 09:56:43;;;;;;;0.00;0.00;;;;;;;13.07;97.23;97718.97;4960990;28;20046;-78
2024/01/03 09:59:08;;;;;;;0.00;0.00;;;;;;;14.91;85.60;97751.03;4948955;28;20035;-77
2024/01/03 10:01:38;;;;;;;0.00;0.00;;;;;;;15.15;78.94;97778.28;4975712;28;20114;-77
2024/01/03 10:04:06;;;;;;;0.00;0.00;;;;;;;15.35;79.62;97742.53;4969423;28;20041;-77
2024/01/03 10:06:32;;;;;;;0.00;0.00;;;;;;;14.32;81.14;97753.59;4953625;28;20022;-77
2024/01/03 10:09:01;;;;;;;0.00;0.00;;;;;;;13.02;85.21;97754.88;4937643;28;20362;-78
2024/01/03 10:11:27;;;;;;;0.00;0.00;;;;;;;12.29;90.82;97757.34;4957873;28;20123;-78
2024/01/03 10:13:54;;;;;;;0.00;0.00;;;;;;;12.98;90.46;97760.25;4959813;28;20022;-77
2024/01/03 10:16:27;;;;;;;0.00;0.00;;;;;;;14.46;88.46;97753.16;4972582;28;20087;-78
2024/01/03 10:19:10;;;;;;;0.00;0.00;;;;;;;15.26;78.29;97755.69;4955147;28;20023;-77
2024/01/03 10:21:38;;;;;;;0.00;0.00;;;;;;;14.36;78.63;97759.22;4971572;28;20030;-77
2024/01/03 10:24:06;;;;;;;0.00;0.00;;;;;;;14.99;78.75;97758.28;4959297;28;20085;-78
2024/01/03 10:26:33;;;;;;;0.00;0.00;;;;;;;17.09;71.36;97771.81;4949787;28;20027;-79
2024/01/03 10:29:15;;;;;;;0.00;0.00;;;;;;;19.25;67.21;97787.66;4950533;28;20063;-78
2024/01/03 10:31:42;;;;;;;0.00;0.00;;;;;;;20.86;60.64;97785.59;4983286;28;20114;-79
2024/01/03 10:34:31;;;;;;;0.00;0.00;;;;;;;21.71;58.60;97786.53;4982081;28;20062;-80
2024/01/03 10:36:58;;;;;;;0.00;0.00;;;;;;;21.52;56.98;97798.13;4955576;28;20022;-80
2024/01/03 10:39:24;;;;;;;0.00;0.00;;;;;;;22.06;53.75;97773.56;4946718;28;20517;-76
2024/01/03 10:41:51;;;;;;;0.00;0.00;;;;;;;22.75;50.99;97775.84;4939018;29;20031;-78
2024/01/03 10:44:18;;;;;;;0.00;0.00;;;;;;;22.17;48.38;97769.97;4958142;28;20257;-78
2024/01/03 10:46:45;;;;;;;0.00;0.00;;;;;;;19.40;54.46;97760.00;4952731;28;20080;-79
2024/01/03 10:49:13;;;;;;;0.00;0.00;;;;;;;18.99;59.05;97769.31;4957601;28;20050;-77
2024/01/03 10:51:46;;;;;;;0.00;0.00;;;;;;;19.96;55.52;97780.78;4968729;28;20030;-78
2024/01/03 10:54:15;;;;;;;0.00;0.00;;;;;;;17.80;58.62;97807.00;4979676;28;20439;-78
2024/01/03 10:56:50;;;;;;;0.00;0.00;;;;;;;15.62;68.75;97767.41;4983163;28;20034;-80
2024/01/03 10:59:17;;;;;;;0.00;0.00;;;;;;;14.15;72.62;97771.28;4968851;28;20031;-78
2024/01/03 11:02:06;;;;;;;0.00;0.00;;;;;;;13.38;81.67;97762.19;4948005;28;20030;-79
2024/01/03 11:04:35;;;;;;;0.00;0.00;;;;;;;14.68;80.31;97776.47;4953322;28;20702;-78
2024/01/03 11:07:28;;;;;;;0.00;0.00;;;;;;;17.30;73.56;97778.78;4982071;28;20022;-79
2024/01/03 11:09:54;;;;;;;0.00;0.00;;;;;;;17.05;68.38;97791.06;4970390;28;20026;-77
2024/01/03 11:12:27;;;;;;;0.00;0.00;;;;;;;15.31;71.31;97775.47;4970759;28;20042;-78
2024/01/03 11:14:52;;;;;;;0.00;0.00;;;;;;;14.93;78.00;97741.28;4953526;28;20015;-79
2024/01/03 11:17:33;;;;;;;0.00;0.00;;;;;;;17.61;74.56;97766.53;4974554;28;20122;-78
2024/01/03 11:20:07;;;;;;;0.00;0.00;;;;;;;17.49;65.98;97759.28;4961858;28;20098;-78
2024/01/03 11:22:54;;;;;;;0.00;0.00;;;;;;;16.17;68.27;97770.81;4974358;28;20030;-77
2024/01/03 11:25:48;;;;;;;0.00;0.00;;;;;;;14.51;73.54;97765.84;4970785;28;20031;-78
2024/01/03 11:28:35;;;;;;;0.00;0.00;;;;;;;13.54;79.25;97778.72;4956727;28;20477;-80
2024/01/03 11:31:01;;;;;;;0.00;0.00;;;;;;;12.61;83.09;97745.81;4960978;28;20035;-79
2024/01/03 11:33:30;;;;;;;0.00;0.00;;;;;;;12.34;89.47;97781.00;4972963;28;20050;-79
2024/01/03 11:35:56;;;;;;;0.00;0.00;;;;;;;11.88;90.56;97778.28;4952573;28;20751;-79
2024/01/03 11:38:41;;;;;;;0.00;0.00;;;;;;;11.87;95.95;97785.72;4946577;28;20018;-79